sensor_id;sensor_type;location;lat;lon;timestamp;pressure;altitude;pressure_sealevel;temperature;humidity
54948;BME280;41113;41.882;12.530;2023-05-24T00:00:02;100888.19;;;17.49;90.85
54948;BME280;41113;41.882;12.530;2023-05-24T00:02:28;100889.59;;;17.36;92.18
54948;BME280;41113;41.882;12.530;2023-05-24T00:04:54;100880.97;;;17.33;92.97
54948;BME280;41113;41.882;12.530;2023-05-24T00:07:19;100876.91;;;17.29;93.45
54948;BME280;41113;41.882;12.530;2023-05-24T00:09:45;100875.22;;;17.28;93.53
54948;BME280;41113;41.882;12.530;2023-05-24T00:12:10;100881.81;;;17.33;93.70
54948;BME280;41113;41.882;12.530;2023-05-24T00:14:35;100877.66;;;17.46;92.09
54948;BME280;41113;41.882;12.530;2023-05-24T00:17:01;100884.63;;;17.48;91.08
54948;BME280;41113;41.882;12.530;2023-05-24T00:19:26;100890.72;;;17.50;90.99
54948;BME280;41113;41.882;12.530;2023-05-24T00:21:52;100887.19;;;17.41;91.72
54948;BME280;41113;41.882;12.530;2023-05-24T00:24:17;100891.81;;;17.33;92.35
54948;BME280;41113;41.882;12.530;2023-05-24T00:26:43;100891.53;;;17.11;92.18
54948;BME280;41113;41.882;12.530;2023-05-24T00:29:08;100884.09;;;17.05;92.94
54948;BME280;41113;41.882;12.530;2023-05-24T00:31:33;100884.41;;;17.10;92.65
54948;BME280;41113;41.882;12.530;2023-05-24T00:33:59;100881.72;;;17.02;92.49
54948;BME280;41113;41.882;12.530;2023-05-24T00:36:24;100880.69;;;17.03;92.37
54948;BME280;41113;41.882;12.530;2023-05-24T00:38:50;100893.78;;;17.00;92.87
54948;BME280;41113;41.882;12.530;2023-05-24T00:41:17;100896.31;;;17.01;92.75
54948;BME280;41113;41.882;12.530;2023-05-24T00:43:42;100895.31;;;16.94;92.98
54948;BME280;41113;41.882;12.530;2023-05-24T00:48:33;100891.09;;;16.92;93.52
54948;BME280;41113;41.882;12.530;2023-05-24T00:50:59;100889.72;;;16.88;93.66
54948;BME280;41113;41.882;12.530;2023-05-24T00:53:24;100895.97;;;16.88;94.05
54948;BME280;41113;41.882;12.530;2023-05-24T00:55:50;100893.75;;;17.08;92.52
54948;BME280;41113;41.882;12.530;2023-05-24T00:58:15;100895.06;;;17.20;91.88
54948;BME280;41113;41.882;12.530;2023-05-24T01:00:41;100895.25;;;17.10;91.52
54948;BME280;41113;41.882;12.530;2023-05-24T01:03:08;100890.88;;;17.01;92.17
54948;BME280;41113;41.882;12.530;2023-05-24T01:05:34;100894.47;;;16.94;92.80
54948;BME280;41113;41.882;12.530;2023-05-24T01:08:20;100889.88;;;16.94;93.09
54948;BME280;41113;41.882;12.530;2023-05-24T01:11:20;100890.91;;;16.93;92.92
54948;BME280;41113;41.882;12.530;2023-05-24T01:13:47;100887.34;;;16.85;93.28
54948;BME280;41113;41.882;12.530;2023-05-24T01:16:21;100879.69;;;16.88;93.38
54948;BME280;41113;41.882;12.530;2023-05-24T01:18:56;100889.50;;;17.05;92.56
54948;BME280;41113;41.882;12.530;2023-05-24T01:27:18;100874.66;;;16.69;94.09
54948;BME280;41113;41.882;12.530;2023-05-24T01:29:46;100883.81;;;16.68;93.82
54948;BME280;41113;41.882;12.530;2023-05-24T01:32:18;100884.47;;;16.62;94.28
54948;BME280;41113;41.882;12.530;2023-05-24T01:34:44;100892.78;;;16.60;94.46
54948;BME280;41113;41.882;12.530;2023-05-24T01:37:09;100878.34;;;16.52;93.99
54948;BME280;41113;41.882;12.530;2023-05-24T01:39:34;100880.72;;;16.55;93.60
54948;BME280;41113;41.882;12.530;2023-05-24T01:42:08;100892.94;;;16.50;93.42
54948;BME280;41113;41.882;12.530;2023-05-24T01:45:05;100876.66;;;16.50;93.43
54948;BME280;41113;41.882;12.530;2023-05-24T01:50:17;100873.59;;;16.86;91.43
54948;BME280;41113;41.882;12.530;2023-05-24T01:52:45;100881.09;;;16.76;91.41
54948;BME280;41113;41.882;12.530;2023-05-24T01:55:14;100874.31;;;16.64;92.07
54948;BME280;41113;41.882;12.530;2023-05-24T01:57:42;100875.31;;;16.63;92.02
54948;BME280;41113;41.882;12.530;2023-05-24T02:00:10;100877.00;;;16.80;91.53
54948;BME280;41113;41.882;12.530;2023-05-24T02:02:36;100885.31;;;16.78;90.59
54948;BME280;41113;41.882;12.530;2023-05-24T02:05:02;100887.19;;;16.70;90.63
54948;BME280;41113;41.882;12.530;2023-05-24T02:07:28;100885.84;;;16.66;91.15
54948;BME280;41113;41.882;12.530;2023-05-24T02:09:53;100879.06;;;16.62;91.29
54948;BME280;41113;41.882;12.530;2023-05-24T02:12:18;100871.91;;;16.53;91.87
54948;BME280;41113;41.882;12.530;2023-05-24T02:14:44;100866.16;;;16.47;92.72
54948;BME280;41113;41.882;12.530;2023-05-24T02:17:09;100862.09;;;16.52;91.98
54948;BME280;41113;41.882;12.530;2023-05-24T02:19:35;100867.38;;;16.69;91.21
54948;BME280;41113;41.882;12.530;2023-05-24T02:22:01;100872.63;;;16.71;90.76
54948;BME280;41113;41.882;12.530;2023-05-24T02:24:27;100876.00;;;16.73;90.56
54948;BME280;41113;41.882;12.530;2023-05-24T02:26:53;100875.69;;;16.68;90.50
54948;BME280;41113;41.882;12.530;2023-05-24T02:29:20;100874.66;;;16.69;90.60
54948;BME280;41113;41.882;12.530;2023-05-24T02:31:45;100871.59;;;16.72;90.90
54948;BME280;41113;41.882;12.530;2023-05-24T02:34:11;100863.66;;;16.70;90.99
54948;BME280;41113;41.882;12.530;2023-05-24T02:36:36;100870.75;;;16.63;91.06
54948;BME280;41113;41.882;12.530;2023-05-24T02:39:02;100878.72;;;16.73;90.75
54948;BME280;41113;41.882;12.530;2023-05-24T02:41:28;100866.16;;;16.80;90.33
54948;BME280;41113;41.882;12.530;2023-05-24T02:43:53;100862.44;;;16.81;90.08
54948;BME280;41113;41.882;12.530;2023-05-24T02:46:19;100865.50;;;16.70;90.64
54948;BME280;41113;41.882;12.530;2023-05-24T02:48:44;100861.59;;;16.64;91.30
54948;BME280;41113;41.882;12.530;2023-05-24T02:51:09;100878.88;;;16.55;91.52
54948;BME280;41113;41.882;12.530;2023-05-24T02:53:35;100867.84;;;16.48;91.97
54948;BME280;41113;41.882;12.530;2023-05-24T02:56:00;100881.75;;;16.29;93.13
54948;BME280;41113;41.882;12.530;2023-05-24T02:58:25;100874.97;;;16.17;93.98
54948;BME280;41113;41.882;12.530;2023-05-24T03:00:54;100879.38;;;16.10;94.64
54948;BME280;41113;41.882;12.530;2023-05-24T03:03:21;100874.97;;;16.17;94.19
54948;BME280;41113;41.882;12.530;2023-05-24T03:05:46;100872.25;;;16.25;93.62
54948;BME280;41113;41.882;12.530;2023-05-24T03:08:12;100871.59;;;16.39;92.54
54948;BME280;41113;41.882;12.530;2023-05-24T03:10:37;100868.88;;;16.31;92.31
54948;BME280;41113;41.882;12.530;2023-05-24T03:13:02;100864.81;;;16.43;92.28
54948;BME280;41113;41.882;12.530;2023-05-24T03:15:28;100865.81;;;16.50;91.92
54948;BME280;41113;41.882;12.530;2023-05-24T03:17:53;100868.22;;;16.37;92.13
54948;BME280;41113;41.882;12.530;2023-05-24T03:20:19;100871.94;;;16.28;92.83
54948;BME280;41113;41.882;12.530;2023-05-24T03:22:47;100875.63;;;16.11;93.64
54948;BME280;41113;41.882;12.530;2023-05-24T03:25:12;100872.25;;;16.01;94.49
54948;BME280;41113;41.882;12.530;2023-05-24T03:27:38;100872.88;;;15.86;95.19
54948;BME280;41113;41.882;12.530;2023-05-24T03:30:04;100875.56;;;15.78;96.29
54948;BME280;41113;41.882;12.530;2023-05-24T03:32:31;100878.25;;;15.70;96.73
54948;BME280;41113;41.882;12.530;2023-05-24T03:34:57;100881.31;;;15.67;96.26
54948;BME280;41113;41.882;12.530;2023-05-24T03:37:24;100881.31;;;15.75;95.93
54948;BME280;41113;41.882;12.530;2023-05-24T03:39:50;100880.97;;;15.70;95.91
54948;BME280;41113;41.882;12.530;2023-05-24T03:42:15;100878.59;;;15.67;95.98
54948;BME280;41113;41.882;12.530;2023-05-24T03:44:41;100882.00;;;15.69;95.68
54948;BME280;41113;41.882;12.530;2023-05-24T03:47:08;100871.81;;;15.63;95.82
54948;BME280;41113;41.882;12.530;2023-05-24T03:49:33;100879.25;;;15.61;96.00
54948;BME280;41113;41.882;12.530;2023-05-24T03:51:58;100882.41;;;15.56;96.32
54948;BME280;41113;41.882;12.530;2023-05-24T03:54:24;100880.53;;;15.57;96.19
54948;BME280;41113;41.882;12.530;2023-05-24T03:56:50;100879.84;;;15.55;96.69
54948;BME280;41113;41.882;12.530;2023-05-24T03:59:17;100885.53;;;15.62;96.14
54948;BME280;41113;41.882;12.530;2023-05-24T04:01:42;100886.75;;;15.75;95.34
54948;BME280;41113;41.882;12.530;2023-05-24T04:04:08;100881.72;;;16.05;94.34
54948;BME280;41113;41.882;12.530;2023-05-24T04:06:33;100888.88;;;16.38;90.93
54948;BME280;41113;41.882;12.530;2023-05-24T04:09:01;100882.41;;;17.04;88.02
54948;BME280;41113;41.882;12.530;2023-05-24T04:11:27;100887.41;;;17.32;85.11
54948;BME280;41113;41.882;12.530;2023-05-24T04:13:53;100891.78;;;17.41;83.71
54948;BME280;41113;41.882;12.530;2023-05-24T04:16:21;100904.22;;;17.75;81.48
54948;BME280;41113;41.882;12.530;2023-05-24T04:18:49;100906.50;;;17.94;80.64
54948;BME280;41113;41.882;12.530;2023-05-24T04:21:14;100893.53;;;18.04;79.74
54948;BME280;41113;41.882;12.530;2023-05-24T04:23:40;100895.75;;;19.07;75.85
54948;BME280;41113;41.882;12.530;2023-05-24T04:26:05;100905.13;;;19.48;73.79
54948;BME280;41113;41.882;12.530;2023-05-24T04:28:31;100908.81;;;19.70;71.64
54948;BME280;41113;41.882;12.530;2023-05-24T04:30:57;100910.91;;;20.90;69.95
54948;BME280;41113;41.882;12.530;2023-05-24T04:33:23;100913.38;;;21.40;66.43
54948;BME280;41113;41.882;12.530;2023-05-24T04:35:48;100913.53;;;21.67;66.75
54948;BME280;41113;41.882;12.530;2023-05-24T04:38:14;100917.81;;;21.89;65.39
54948;BME280;41113;41.882;12.530;2023-05-24T04:40:39;100909.59;;;22.63;64.00
54948;BME280;41113;41.882;12.530;2023-05-24T04:43:05;100914.44;;;22.75;58.21
54948;BME280;41113;41.882;12.530;2023-05-24T04:45:32;100916.63;;;22.05;62.09
54948;BME280;41113;41.882;12.530;2023-05-24T04:47:58;100918.66;;;22.44;61.56
54948;BME280;41113;41.882;12.530;2023-05-24T04:50:23;100914.63;;;23.33;58.83
54948;BME280;41113;41.882;12.530;2023-05-24T04:52:49;100917.13;;;23.41;59.84
54948;BME280;41113;41.882;12.530;2023-05-24T04:55:15;100923.94;;;23.18;56.15
54948;BME280;41113;41.882;12.530;2023-05-24T04:57:40;100928.75;;;24.01;55.25
54948;BME280;41113;41.882;12.530;2023-05-24T05:00:06;100926.41;;;25.05;55.90
54948;BME280;41113;41.882;12.530;2023-05-24T05:02:32;100922.88;;;26.26;51.92
54948;BME280;41113;41.882;12.530;2023-05-24T05:04:57;100928.13;;;23.99;55.15
54948;BME280;41113;41.882;12.530;2023-05-24T05:07:23;100923.44;;;24.50;55.85
54948;BME280;41113;41.882;12.530;2023-05-24T05:09:49;100928.44;;;23.84;56.85
54948;BME280;41113;41.882;12.530;2023-05-24T05:12:15;100929.09;;;23.79;55.88
54948;BME280;41113;41.882;12.530;2023-05-24T05:14:41;100931.53;;;22.96;58.35
54948;BME280;41113;41.882;12.530;2023-05-24T05:17:07;100933.59;;;23.34;56.54
54948;BME280;41113;41.882;12.530;2023-05-24T05:19:32;100927.22;;;22.28;59.13
54948;BME280;41113;41.882;12.530;2023-05-24T05:21:58;100928.66;;;22.11;60.53
54948;BME280;41113;41.882;12.530;2023-05-24T05:24:23;100929.53;;;22.18;60.85
54948;BME280;41113;41.882;12.530;2023-05-24T05:26:48;100928.56;;;23.24;58.26
54948;BME280;41113;41.882;12.530;2023-05-24T05:29:14;100934.66;;;22.74;56.94
54948;BME280;41113;41.882;12.530;2023-05-24T05:31:40;100932.34;;;22.57;59.23
54948;BME280;41113;41.882;12.530;2023-05-24T05:34:05;100935.72;;;23.25;56.07
54948;BME280;41113;41.882;12.530;2023-05-24T05:36:34;100932.56;;;23.28;55.38
54948;BME280;41113;41.882;12.530;2023-05-24T05:39:07;100934.16;;;23.76;55.83
54948;BME280;41113;41.882;12.530;2023-05-24T05:41:35;100927.34;;;25.18;50.09
54948;BME280;41113;41.882;12.530;2023-05-24T05:44:01;100929.59;;;24.77;52.31
54948;BME280;41113;41.882;12.530;2023-05-24T05:46:26;100935.31;;;24.44;51.95
54948;BME280;41113;41.882;12.530;2023-05-24T05:48:52;100931.41;;;24.59;53.16
54948;BME280;41113;41.882;12.530;2023-05-24T05:51:17;100933.97;;;25.90;51.15
54948;BME280;41113;41.882;12.530;2023-05-24T05:53:44;100938.19;;;25.12;49.17
54948;BME280;41113;41.882;12.530;2023-05-24T05:56:09;100941.31;;;24.28;51.92
54948;BME280;41113;41.882;12.530;2023-05-24T05:58:35;100936.06;;;23.75;52.92
54948;BME280;41113;41.882;12.530;2023-05-24T06:01:00;100941.44;;;23.95;52.63
54948;BME280;41113;41.882;12.530;2023-05-24T06:03:25;100927.97;;;25.20;51.28
54948;BME280;41113;41.882;12.530;2023-05-24T06:05:51;100924.22;;;26.54;45.78
54948;BME280;41113;41.882;12.530;2023-05-24T06:08:16;100923.84;;;25.72;50.33
54948;BME280;41113;41.882;12.530;2023-05-24T06:10:41;100921.94;;;26.32;49.75
54948;BME280;41113;41.882;12.530;2023-05-24T06:13:07;100920.53;;;26.72;48.32
54948;BME280;41113;41.882;12.530;2023-05-24T06:15:32;100919.03;;;26.16;46.56
54948;BME280;41113;41.882;12.530;2023-05-24T06:17:59;100920.34;;;25.58;48.49
54948;BME280;41113;41.882;12.530;2023-05-24T06:20:26;100922.81;;;26.03;49.04
54948;BME280;41113;41.882;12.530;2023-05-24T06:22:51;100925.94;;;25.88;46.90
54948;BME280;41113;41.882;12.530;2023-05-24T06:25:17;100920.69;;;26.88;47.23
54948;BME280;41113;41.882;12.530;2023-05-24T06:27:45;100925.88;;;27.67;45.36
54948;BME280;41113;41.882;12.530;2023-05-24T06:30:10;100925.63;;;28.65;43.29
54948;BME280;41113;41.882;12.530;2023-05-24T06:32:37;100919.16;;;28.03;44.50
54948;BME280;41113;41.882;12.530;2023-05-24T06:35:03;100917.06;;;26.76;45.38
54948;BME280;41113;41.882;12.530;2023-05-24T06:37:28;100920.13;;;25.41;50.28
54948;BME280;41113;41.882;12.530;2023-05-24T06:39:55;100924.41;;;23.86;51.93
54948;BME280;41113;41.882;12.530;2023-05-24T06:42:21;100920.00;;;23.72;54.20
54948;BME280;41113;41.882;12.530;2023-05-24T06:44:46;100923.63;;;24.17;53.36
54948;BME280;41113;41.882;12.530;2023-05-24T06:47:12;100924.09;;;24.08;53.03
54948;BME280;41113;41.882;12.530;2023-05-24T06:49:37;100924.28;;;23.62;54.24
54948;BME280;41113;41.882;12.530;2023-05-24T06:52:03;100928.03;;;23.80;53.64
54948;BME280;41113;41.882;12.530;2023-05-24T06:54:29;100934.00;;;23.57;53.94
54948;BME280;41113;41.882;12.530;2023-05-24T06:56:54;100925.00;;;22.78;54.84
54948;BME280;41113;41.882;12.530;2023-05-24T06:59:19;100921.81;;;22.61;56.25
54948;BME280;41113;41.882;12.530;2023-05-24T07:01:45;100925.19;;;22.63;56.25
54948;BME280;41113;41.882;12.530;2023-05-24T07:04:10;100922.06;;;22.86;55.95
54948;BME280;41113;41.882;12.530;2023-05-24T07:06:36;100929.84;;;22.95;56.15
54948;BME280;41113;41.882;12.530;2023-05-24T07:09:02;100931.94;;;23.20;55.28
54948;BME280;41113;41.882;12.530;2023-05-24T07:11:28;100932.56;;;23.09;55.67
54948;BME280;41113;41.882;12.530;2023-05-24T07:13:57;100930.69;;;23.09;55.96
54948;BME280;41113;41.882;12.530;2023-05-24T07:16:22;100933.44;;;22.89;56.32
54948;BME280;41113;41.882;12.530;2023-05-24T07:18:48;100928.16;;;23.01;56.34
54948;BME280;41113;41.882;12.530;2023-05-24T07:21:13;100931.47;;;23.56;54.70
54948;BME280;41113;41.882;12.530;2023-05-24T07:23:39;100928.34;;;23.97;53.56
54948;BME280;41113;41.882;12.530;2023-05-24T07:26:04;100930.28;;;24.41;52.46
54948;BME280;41113;41.882;12.530;2023-05-24T07:28:29;100917.03;;;24.25;52.67
54948;BME280;41113;41.882;12.530;2023-05-24T07:30:55;100920.66;;;23.68;54.43
54948;BME280;41113;41.882;12.530;2023-05-24T07:33:20;100913.53;;;24.05;53.65
54948;BME280;41113;41.882;12.530;2023-05-24T07:35:46;100921.38;;;24.01;53.96
54948;BME280;41113;41.882;12.530;2023-05-24T07:38:16;100919.81;;;24.18;53.74
54948;BME280;41113;41.882;12.530;2023-05-24T07:40:41;100916.66;;;23.70;54.85
54948;BME280;41113;41.882;12.530;2023-05-24T07:43:07;100917.78;;;23.43;55.23
54948;BME280;41113;41.882;12.530;2023-05-24T07:45:32;100924.53;;;23.47;55.88
54948;BME280;41113;41.882;12.530;2023-05-24T07:47:58;100922.84;;;23.46;55.99
54948;BME280;41113;41.882;12.530;2023-05-24T07:50:23;100909.91;;;23.66;55.58
54948;BME280;41113;41.882;12.530;2023-05-24T07:52:49;100911.88;;;23.33;56.58
54948;BME280;41113;41.882;12.530;2023-05-24T07:55:15;100909.88;;;23.73;55.97
54948;BME280;41113;41.882;12.530;2023-05-24T07:57:40;100913.66;;;23.85;55.30
54948;BME280;41113;41.882;12.530;2023-05-24T08:00:07;100918.56;;;23.76;55.37
54948;BME280;41113;41.882;12.530;2023-05-24T08:02:34;100910.31;;;23.76;55.37
54948;BME280;41113;41.882;12.530;2023-05-24T08:05:00;100912.91;;;23.58;55.99
54948;BME280;41113;41.882;12.530;2023-05-24T08:07:25;100912.00;;;23.77;55.79
54948;BME280;41113;41.882;12.530;2023-05-24T08:09:51;100907.97;;;23.80;55.27
54948;BME280;41113;41.882;12.530;2023-05-24T08:12:16;100908.59;;;23.82;55.59
54948;BME280;41113;41.882;12.530;2023-05-24T08:14:42;100908.03;;;24.11;54.98
54948;BME280;41113;41.882;12.530;2023-05-24T08:17:07;100904.22;;;24.12;54.47
54948;BME280;41113;41.882;12.530;2023-05-24T08:19:32;100902.88;;;24.28;54.33
54948;BME280;41113;41.882;12.530;2023-05-24T08:22:00;100909.66;;;24.57;53.62
54948;BME280;41113;41.882;12.530;2023-05-24T08:24:29;100904.63;;;24.79;52.91
54948;BME280;41113;41.882;12.530;2023-05-24T08:26:55;100910.81;;;24.99;52.56
54948;BME280;41113;41.882;12.530;2023-05-24T08:29:21;100911.03;;;24.73;53.08
54948;BME280;41113;41.882;12.530;2023-05-24T08:31:46;100905.63;;;24.60;53.06
54948;BME280;41113;41.882;12.530;2023-05-24T08:34:13;100901.38;;;24.64;53.09
54948;BME280;41113;41.882;12.530;2023-05-24T08:36:40;100910.91;;;24.86;52.40
54948;BME280;41113;41.882;12.530;2023-05-24T08:39:07;100911.16;;;24.53;52.84
54948;BME280;41113;41.882;12.530;2023-05-24T08:41:34;100910.34;;;24.52;52.36
54948;BME280;41113;41.882;12.530;2023-05-24T08:44:04;100911.06;;;24.91;51.89
54948;BME280;41113;41.882;12.530;2023-05-24T08:46:31;100903.53;;;25.30;50.63
54948;BME280;41113;41.882;12.530;2023-05-24T08:48:57;100911.78;;;25.30;50.04
54948;BME280;41113;41.882;12.530;2023-05-24T08:51:23;100913.16;;;25.21;50.11
54948;BME280;41113;41.882;12.530;2023-05-24T08:53:52;100913.19;;;24.89;51.01
54948;BME280;41113;41.882;12.530;2023-05-24T08:56:18;100906.16;;;24.75;51.03
54948;BME280;41113;41.882;12.530;2023-05-24T08:58:44;100896.44;;;24.97;50.66
54948;BME280;41113;41.882;12.530;2023-05-24T09:01:12;100906.13;;;25.06;51.03
54948;BME280;41113;41.882;12.530;2023-05-24T09:03:39;100899.09;;;25.10;50.31
54948;BME280;41113;41.882;12.530;2023-05-24T09:06:06;100904.06;;;24.95;50.23
54948;BME280;41113;41.882;12.530;2023-05-24T09:08:33;100901.59;;;24.87;51.21
54948;BME280;41113;41.882;12.530;2023-05-24T09:11:01;100906.81;;;25.20;50.70
54948;BME280;41113;41.882;12.530;2023-05-24T09:13:27;100891.78;;;25.41;50.49
54948;BME280;41113;41.882;12.530;2023-05-24T09:15:53;100900.50;;;25.56;50.25
54948;BME280;41113;41.882;12.530;2023-05-24T09:18:19;100901.09;;;25.58;50.04
54948;BME280;41113;41.882;12.530;2023-05-24T09:20:45;100894.69;;;25.46;49.65
54948;BME280;41113;41.882;12.530;2023-05-24T09:23:11;100894.28;;;25.61;49.99
54948;BME280;41113;41.882;12.530;2023-05-24T09:25:42;100895.16;;;25.80;49.40
54948;BME280;41113;41.882;12.530;2023-05-24T09:28:15;100896.28;;;25.90;49.54
54948;BME280;41113;41.882;12.530;2023-05-24T09:30:45;100903.31;;;26.04;49.09
54948;BME280;41113;41.882;12.530;2023-05-24T09:33:22;100896.28;;;25.90;49.11
54948;BME280;41113;41.882;12.530;2023-05-24T09:35:47;100894.13;;;25.92;49.37
54948;BME280;41113;41.882;12.530;2023-05-24T09:38:17;100891.00;;;26.07;48.83
54948;BME280;41113;41.882;12.530;2023-05-24T09:40:43;100886.13;;;26.21;48.88
54948;BME280;41113;41.882;12.530;2023-05-24T09:43:09;100888.84;;;26.09;49.30
54948;BME280;41113;41.882;12.530;2023-05-24T09:45:43;100898.19;;;26.08;48.17
54948;BME280;41113;41.882;12.530;2023-05-24T09:48:17;100891.34;;;26.11;48.85
54948;BME280;41113;41.882;12.530;2023-05-24T09:50:42;100885.47;;;26.07;48.48
54948;BME280;41113;41.882;12.530;2023-05-24T09:53:12;100883.69;;;26.13;48.51
54948;BME280;41113;41.882;12.530;2023-05-24T09:55:37;100881.22;;;26.23;48.13
54948;BME280;41113;41.882;12.530;2023-05-24T09:58:07;100878.78;;;26.03;47.86
54948;BME280;41113;41.882;12.530;2023-05-24T10:00:42;100875.09;;;25.91;47.30
54948;BME280;41113;41.882;12.530;2023-05-24T10:03:11;100880.44;;;26.04;47.61
54948;BME280;41113;41.882;12.530;2023-05-24T10:05:41;100876.88;;;26.15;47.75
54948;BME280;41113;41.882;12.530;2023-05-24T10:08:07;100872.38;;;26.32;47.63
54948;BME280;41113;41.882;12.530;2023-05-24T10:10:34;100867.28;;;26.36;47.26
54948;BME280;41113;41.882;12.530;2023-05-24T10:13:00;100867.19;;;26.43;47.17
54948;BME280;41113;41.882;12.530;2023-05-24T10:15:26;100861.44;;;26.56;47.20
54948;BME280;41113;41.882;12.530;2023-05-24T10:17:55;100865.66;;;26.58;45.12
54948;BME280;41113;41.882;12.530;2023-05-24T10:20:22;100865.28;;;26.55;47.18
54948;BME280;41113;41.882;12.530;2023-05-24T10:22:51;100850.06;;;26.52;47.16
54948;BME280;41113;41.882;12.530;2023-05-24T10:25:22;100858.09;;;26.54;47.20
54948;BME280;41113;41.882;12.530;2023-05-24T10:27:52;100849.47;;;26.39;47.49
54948;BME280;41113;41.882;12.530;2023-05-24T10:30:29;100847.38;;;26.34;47.08
54948;BME280;41113;41.882;12.530;2023-05-24T10:32:58;100846.38;;;26.17;47.86
54948;BME280;41113;41.882;12.530;2023-05-24T10:35:24;100849.25;;;25.92;47.29
54948;BME280;41113;41.882;12.530;2023-05-24T10:37:52;100841.34;;;25.84;47.49
54948;BME280;41113;41.882;12.530;2023-05-24T10:40:20;100847.31;;;25.81;47.47
54948;BME280;41113;41.882;12.530;2023-05-24T10:42:46;100839.34;;;25.91;47.14
54948;BME280;41113;41.882;12.530;2023-05-24T10:45:32;100840.03;;;25.86;45.26
54948;BME280;41113;41.882;12.530;2023-05-24T10:50:49;100832.72;;;26.22;46.75
54948;BME280;41113;41.882;12.530;2023-05-24T10:53:16;100829.25;;;26.26;46.24
54948;BME280;41113;41.882;12.530;2023-05-24T10:55:59;100826.22;;;26.34;43.24
54948;BME280;41113;41.882;12.530;2023-05-24T11:00:57;100827.06;;;26.35;43.33
54948;BME280;41113;41.882;12.530;2023-05-24T11:03:42;100821.31;;;26.37;44.87
54948;BME280;41113;41.882;12.530;2023-05-24T11:06:08;100822.28;;;26.42;44.26
54948;BME280;41113;41.882;12.530;2023-05-24T11:08:35;100820.97;;;26.45;44.38
54948;BME280;41113;41.882;12.530;2023-05-24T11:11:08;100806.72;;;26.06;43.16
54948;BME280;41113;41.882;12.530;2023-05-24T11:13:35;100804.94;;;25.70;41.80
54948;BME280;41113;41.882;12.530;2023-05-24T11:16:01;100805.66;;;25.59;43.66
54948;BME280;41113;41.882;12.530;2023-05-24T11:18:27;100797.41;;;25.77;43.54
54948;BME280;41113;41.882;12.530;2023-05-24T11:20:52;100791.59;;;25.85;43.89
54948;BME280;41113;41.882;12.530;2023-05-24T11:23:18;100788.72;;;25.92;44.10
54948;BME280;41113;41.882;12.530;2023-05-24T11:25:46;100788.19;;;26.13;44.18
54948;BME280;41113;41.882;12.530;2023-05-24T11:28:11;100792.88;;;26.24;44.29
54948;BME280;41113;41.882;12.530;2023-05-24T11:30:49;100787.72;;;26.28;44.22
54948;BME280;41113;41.882;12.530;2023-05-24T11:35:47;100786.41;;;26.30;43.39
54948;BME280;41113;41.882;12.530;2023-05-24T11:38:14;100781.81;;;26.43;44.35
54948;BME280;41113;41.882;12.530;2023-05-24T11:40:45;100777.59;;;26.52;43.95
54948;BME280;41113;41.882;12.530;2023-05-24T11:43:12;100778.91;;;26.61;44.21
54948;BME280;41113;41.882;12.530;2023-05-24T11:45:40;100778.81;;;26.56;44.03
54948;BME280;41113;41.882;12.530;2023-05-24T11:48:07;100775.69;;;26.41;44.13
54948;BME280;41113;41.882;12.530;2023-05-24T11:50:38;100766.00;;;26.38;43.59
54948;BME280;41113;41.882;12.530;2023-05-24T11:53:03;100767.19;;;26.42;44.09
54948;BME280;41113;41.882;12.530;2023-05-24T11:55:29;100761.94;;;26.41;44.90
54948;BME280;41113;41.882;12.530;2023-05-24T11:57:57;100769.81;;;26.49;45.20
54948;BME280;41113;41.882;12.530;2023-05-24T12:00:26;100767.06;;;26.49;45.51
54948;BME280;41113;41.882;12.530;2023-05-24T12:02:55;100752.22;;;26.50;45.33
54948;BME280;41113;41.882;12.530;2023-05-24T12:05:21;100763.13;;;26.56;45.62
54948;BME280;41113;41.882;12.530;2023-05-24T12:07:47;100767.78;;;26.56;45.57
54948;BME280;41113;41.882;12.530;2023-05-24T12:10:15;100768.97;;;26.60;46.31
54948;BME280;41113;41.882;12.530;2023-05-24T12:12:45;100760.97;;;26.70;46.51
54948;BME280;41113;41.882;12.530;2023-05-24T12:15:11;100758.94;;;26.77;46.24
54948;BME280;41113;41.882;12.530;2023-05-24T12:17:39;100759.28;;;26.81;46.22
54948;BME280;41113;41.882;12.530;2023-05-24T12:20:04;100749.94;;;26.82;46.49
54948;BME280;41113;41.882;12.530;2023-05-24T12:22:30;100759.41;;;26.74;46.84
54948;BME280;41113;41.882;12.530;2023-05-24T12:24:56;100753.91;;;26.74;46.93
54948;BME280;41113;41.882;12.530;2023-05-24T12:27:29;100753.53;;;26.82;47.06
54948;BME280;41113;41.882;12.530;2023-05-24T12:30:05;100753.63;;;26.87;47.03
54948;BME280;41113;41.882;12.530;2023-05-24T12:32:31;100756.88;;;26.84;47.86
54948;BME280;41113;41.882;12.530;2023-05-24T12:34:58;100751.59;;;26.83;48.05
54948;BME280;41113;41.882;12.530;2023-05-24T12:37:23;100755.56;;;26.98;48.08
54948;BME280;41113;41.882;12.530;2023-05-24T12:39:48;100749.16;;;26.98;48.03
54948;BME280;41113;41.882;12.530;2023-05-24T12:42:14;100750.28;;;26.85;48.37
54948;BME280;41113;41.882;12.530;2023-05-24T12:44:40;100749.47;;;26.73;48.74
54948;BME280;41113;41.882;12.530;2023-05-24T12:47:06;100740.94;;;26.63;49.01
54948;BME280;41113;41.882;12.530;2023-05-24T12:49:32;100747.06;;;26.65;48.91
54948;BME280;41113;41.882;12.530;2023-05-24T12:51:58;100737.13;;;26.64;48.88
54948;BME280;41113;41.882;12.530;2023-05-24T12:54:25;100729.94;;;26.63;49.05
54948;BME280;41113;41.882;12.530;2023-05-24T12:56:52;100720.38;;;26.54;49.29